createdAt,value
2022-07-30T00:01:16.727Z,23.06
2022-07-30T00:03:43.634Z,23.10
2022-07-30T00:06:10.241Z,23.24
2022-07-30T00:08:36.801Z,23.01
2022-07-30T00:11:03.322Z,22.99
2022-07-30T00:13:30.084Z,22.89
2022-07-30T00:15:56.623Z,23.01
2022-07-30T00:18:23.168Z,23.07
2022-07-30T00:20:49.727Z,23.05
2022-07-30T00:23:17.791Z,22.88
2022-07-30T00:25:44.498Z,22.47
2022-07-30T00:28:11.083Z,22.15
2022-07-30T00:30:38.780Z,22.23
2022-07-30T00:33:05.546Z,21.95
2022-07-30T00:35:34.851Z,22.14
2022-07-30T00:38:01.410Z,22.18
2022-07-30T00:40:28.037Z,22.23
2022-07-30T00:42:55.052Z,22.27
2022-07-30T00:45:21.669Z,22.48
2022-07-30T00:47:48.345Z,22.53
2022-07-30T00:50:16.374Z,22.44
2022-07-30T00:52:43.337Z,22.33
2022-07-30T00:55:13.335Z,22.32
2022-07-30T00:57:40.521Z,22.30
2022-07-30T01:00:11.663Z,22.36
2022-07-30T01:02:38.383Z,22.13
2022-07-30T01:05:05.915Z,21.93
2022-07-30T01:07:32.712Z,21.98
2022-07-30T01:09:59.327Z,22.18
2022-07-30T01:12:27.173Z,22.18
2022-07-30T01:14:56.132Z,22.13
2022-07-30T01:17:22.878Z,21.77
2022-07-30T01:19:56.045Z,20.99
2022-07-30T01:22:30.503Z,21.81
2022-07-30T01:25:09.927Z,21.82
2022-07-30T01:27:43.565Z,21.82
2022-07-30T01:30:10.856Z,21.49
2022-07-30T01:32:40.737Z,21.92
2022-07-30T01:35:09.818Z,21.73
2022-07-30T01:37:38.486Z,20.77
2022-07-30T01:40:06.280Z,20.82
2022-07-30T01:42:33.732Z,20.54
2022-07-30T01:45:00.982Z,20.23
2022-07-30T01:47:28.250Z,20.72
2022-07-30T01:49:55.338Z,20.57
2022-07-30T01:52:23.523Z,20.18
2022-07-30T01:54:51.779Z,20.56
2022-07-30T01:57:19.888Z,20.30
2022-07-30T01:59:49.825Z,20.43
2022-07-30T02:02:17.951Z,20.76
2022-07-30T02:04:45.042Z,20.35
2022-07-30T02:07:18.756Z,20.28
2022-07-30T02:09:55.207Z,20.22
2022-07-30T02:12:29.170Z,20.38
2022-07-30T02:15:14.317Z,20.43
2022-07-30T02:17:57.469Z,19.97
2022-07-30T02:20:28.338Z,20.25
2022-07-30T02:23:00.608Z,20.50
2022-07-30T02:25:27.764Z,20.56
2022-07-30T02:27:57.349Z,20.39
2022-07-30T02:30:27.988Z,20.35
2022-07-30T02:32:58.371Z,20.06
2022-07-30T02:35:26.763Z,20.30
2022-07-30T02:37:54.358Z,20.03
2022-07-30T02:40:22.691Z,20.01
2022-07-30T02:42:50.500Z,20.07
2022-07-30T02:45:18.208Z,19.80
2022-07-30T02:47:46.584Z,20.20
2022-07-30T02:50:13.607Z,20.03
2022-07-30T02:52:40.551Z,20.41
2022-07-30T02:55:09.274Z,20.07
2022-07-30T02:57:36.314Z,20.03
2022-07-30T03:00:11.898Z,20.25
2022-07-30T03:02:39.398Z,20.37
2022-07-30T03:05:07.486Z,20.24
2022-07-30T03:07:34.692Z,20.14
2022-07-30T03:10:01.593Z,19.96
2022-07-30T03:12:32.992Z,20.12
2022-07-30T03:14:59.585Z,20.24
2022-07-30T03:17:28.857Z,20.39
2022-07-30T03:19:56.253Z,20.29
2022-07-30T03:22:27.206Z,20.41
2022-07-30T03:24:57.793Z,20.58
2022-07-30T03:27:25.091Z,20.70
2022-07-30T03:29:54.048Z,20.77
2022-07-30T03:32:25.983Z,20.71
2022-07-30T03:34:54.191Z,20.94
2022-07-30T03:37:21.494Z,20.85
2022-07-30T03:39:48.534Z,20.99
2022-07-30T03:42:15.729Z,20.81
2022-07-30T03:44:45.684Z,20.75
2022-07-30T03:47:13.169Z,20.48
2022-07-30T03:49:40.078Z,20.67
2022-07-30T03:52:07.249Z,20.94
2022-07-30T03:54:34.207Z,20.78
2022-07-30T03:57:02.685Z,20.58
2022-07-30T03:59:29.626Z,20.72
2022-07-30T04:02:05.969Z,20.74
2022-07-30T04:04:34.177Z,20.83
2022-07-30T04:07:01.098Z,20.74
2022-07-30T04:09:28.133Z,21.00
2022-07-30T04:11:54.755Z,20.93
2022-07-30T04:14:21.386Z,20.59
2022-07-30T04:17:12.284Z,20.82
2022-07-30T04:19:44.015Z,20.88
2022-07-30T04:22:12.222Z,20.82
2022-07-30T04:24:39.341Z,20.78
2022-07-30T04:27:06.282Z,20.89
2022-07-30T04:29:32.912Z,20.77
2022-07-30T04:31:59.635Z,20.39
2022-07-30T04:34:26.320Z,20.23
2022-07-30T04:36:52.832Z,20.43
2022-07-30T04:39:19.617Z,20.15
2022-07-30T04:41:48.641Z,20.16
2022-07-30T04:44:20.429Z,20.43
2022-07-30T04:46:48.002Z,20.49
2022-07-30T04:49:16.685Z,20.61
2022-07-30T04:51:43.951Z,20.38
2022-07-30T04:54:15.564Z,20.15
2022-07-30T04:56:52.474Z,20.39
2022-07-30T04:59:21.951Z,20.46
2022-07-30T05:01:52.350Z,20.44
2022-07-30T05:04:19.727Z,20.23
2022-07-30T05:06:46.470Z,20.69
2022-07-30T05:09:15.107Z,20.41
2022-07-30T05:11:41.804Z,20.24
2022-07-30T05:14:08.348Z,20.47
2022-07-30T05:16:35.724Z,19.84
2022-07-30T05:19:02.290Z,20.34
2022-07-30T05:21:34.409Z,19.45
2022-07-30T05:24:01.018Z,19.63
2022-07-30T05:26:28.024Z,19.83
2022-07-30T05:28:55.120Z,19.67
2022-07-30T05:31:23.795Z,19.70
2022-07-30T05:33:52.122Z,19.13
2022-07-30T05:36:21.856Z,19.08
2022-07-30T05:38:48.564Z,19.25
2022-07-30T05:41:25.127Z,19.19
2022-07-30T05:43:59.117Z,19.56
2022-07-30T05:46:26.076Z,18.92
2022-07-30T05:48:52.964Z,19.49
2022-07-30T05:51:20.934Z,19.81
2022-07-30T05:53:47.887Z,19.85
2022-07-30T05:56:14.500Z,20.06
2022-07-30T05:58:41.124Z,20.30
2022-07-30T06:01:07.810Z,20.56
2022-07-30T06:03:34.937Z,20.22
2022-07-30T06:06:04.606Z,20.47
2022-07-30T06:08:31.247Z,19.35
2022-07-30T06:10:57.818Z,19.29
2022-07-30T06:13:24.652Z,19.58
2022-07-30T06:15:51.514Z,19.68
2022-07-30T06:18:18.088Z,19.97
2022-07-30T06:20:45.263Z,20.29
2022-07-30T06:23:12.265Z,20.59
2022-07-30T06:25:39.344Z,20.94
2022-07-30T06:28:34.832Z,20.76
2022-07-30T06:30:54.244Z,21.42
2022-07-30T06:33:20.829Z,21.72
2022-07-30T06:35:48.894Z,21.12
2022-07-30T06:38:15.493Z,21.09
2022-07-30T06:40:42.089Z,21.16
2022-07-30T06:43:08.705Z,20.70
2022-07-30T06:45:35.362Z,20.48
2022-07-30T06:48:01.954Z,20.67
2022-07-30T06:50:28.633Z,21.18
2022-07-30T06:52:55.209Z,20.84
2022-07-30T06:55:21.804Z,21.69
2022-07-30T06:57:48.412Z,22.04
2022-07-30T07:00:15.562Z,22.45
2022-07-30T07:02:42.802Z,21.97
2022-07-30T07:05:10.012Z,22.74
2022-07-30T07:07:42.186Z,22.53
2022-07-30T07:10:10.624Z,22.37
2022-07-30T07:12:37.305Z,22.87
2022-07-30T07:15:04.321Z,22.53
2022-07-30T07:17:31.282Z,23.14
2022-07-30T07:20:01.736Z,23.06
2022-07-30T07:22:28.984Z,23.28
2022-07-30T07:24:55.979Z,22.33
2022-07-30T07:27:22.642Z,23.66
2022-07-30T07:30:01.660Z,23.90
2022-07-30T07:32:34.262Z,23.34
2022-07-30T07:35:01.292Z,22.98
2022-07-30T07:37:27.915Z,23.15
2022-07-30T07:39:54.483Z,23.62
2022-07-30T07:42:21.041Z,24.20
2022-07-30T07:44:47.740Z,23.98
2022-07-30T07:47:14.509Z,22.82
2022-07-30T07:49:41.051Z,23.23
2022-07-30T07:52:07.636Z,23.70
2022-07-30T07:54:34.168Z,24.16
2022-07-30T07:57:03.177Z,24.38
2022-07-30T07:59:39.646Z,22.56
2022-07-30T08:02:08.375Z,23.33
2022-07-30T08:04:35.507Z,23.69
2022-07-30T08:07:02.755Z,23.79
2022-07-30T08:09:43.878Z,22.65
2022-07-30T08:12:12.691Z,23.63
2022-07-30T08:14:39.835Z,23.87
2022-07-30T08:17:07.122Z,23.65
2022-07-30T08:19:34.216Z,24.07
2022-07-30T08:22:00.876Z,23.95
2022-07-30T08:24:27.407Z,23.16
2022-07-30T08:26:53.999Z,24.24
2022-07-30T08:29:20.536Z,23.47
2022-07-30T08:31:47.127Z,23.46
2022-07-30T08:34:13.896Z,24.02
2022-07-30T08:36:40.741Z,24.14
2022-07-30T08:39:07.422Z,24.73
2022-07-30T08:41:36.128Z,22.93
2022-07-30T08:44:03.175Z,23.05
2022-07-30T08:46:31.729Z,23.29
2022-07-30T08:49:00.600Z,22.73
2022-07-30T08:51:37.605Z,24.35
2022-07-30T08:54:04.701Z,24.66
2022-07-30T08:56:32.516Z,25.73
2022-07-30T08:59:00.844Z,26.82
2022-07-30T09:01:27.670Z,25.61
2022-07-30T09:03:54.446Z,26.09
2022-07-30T09:06:21.104Z,25.58
2022-07-30T09:08:47.814Z,25.05
2022-07-30T09:11:14.642Z,26.28
2022-07-30T09:13:42.413Z,25.47
2022-07-30T09:16:22.685Z,27.14
2022-07-30T09:18:49.941Z,26.60
2022-07-30T09:21:29.039Z,27.54
2022-07-30T09:23:59.578Z,28.95
2022-07-30T09:26:26.487Z,29.31
2022-07-30T09:28:53.188Z,32.83
2022-07-30T09:31:20.854Z,36.97
2022-07-30T09:33:47.952Z,35.69
2022-07-30T09:36:16.797Z,38.88
2022-07-30T09:38:48.531Z,39.29
2022-07-30T09:41:37.590Z,42.91
2022-07-30T09:44:04.360Z,45.43
2022-07-30T09:46:47.090Z,43.30
2022-07-30T09:49:18.680Z,44.44
2022-07-30T09:51:55.755Z,44.47
2022-07-30T09:54:51.225Z,47.32
2022-07-30T09:57:25.706Z,41.81
2022-07-30T09:59:56.573Z,40.27
2022-07-30T10:02:33.907Z,37.49
2022-07-30T10:05:15.300Z,40.03
2022-07-30T10:07:48.458Z,40.92
2022-07-30T10:10:19.951Z,42.88
2022-07-30T10:12:47.981Z,44.77
2022-07-30T10:15:16.017Z,40.31
2022-07-30T10:17:42.837Z,43.96
2022-07-30T10:20:09.744Z,42.25
2022-07-30T10:22:38.976Z,45.32
2022-07-30T10:25:06.515Z,46.25
2022-07-30T10:27:33.898Z,46.41
2022-07-30T10:30:03.619Z,44.41
2022-07-30T10:32:31.794Z,44.65
2022-07-30T10:34:59.768Z,45.51
2022-07-30T10:37:27.490Z,47.37
2022-07-30T10:39:57.302Z,45.91
2022-07-30T10:42:44.745Z,46.03
2022-07-30T10:45:23.893Z,46.94
2022-07-30T10:47:51.868Z,46.64
2022-07-30T10:50:22.384Z,48.44
2022-07-30T10:52:56.766Z,50.55
2022-07-30T10:55:37.003Z,45.11
2022-07-30T10:58:15.553Z,44.81
2022-07-30T11:00:51.715Z,42.69
2022-07-30T11:03:40.703Z,45.00
2022-07-30T11:06:24.084Z,44.12
2022-07-30T11:08:51.536Z,43.36
2022-07-30T11:11:21.067Z,46.47
2022-07-30T11:14:07.672Z,45.73
2022-07-30T11:16:34.803Z,43.62
2022-07-30T11:19:55.275Z,44.31
2022-07-30T11:22:27.226Z,43.21
2022-07-30T11:24:54.168Z,43.59
2022-07-30T11:27:42.078Z,45.85
2022-07-30T11:30:18.830Z,42.65
2022-07-30T11:32:45.975Z,38.57
2022-07-30T11:35:35.290Z,44.09
2022-07-30T11:38:19.688Z,40.89
2022-07-30T11:40:49.096Z,37.10
2022-07-30T11:43:35.650Z,36.02
2022-07-30T11:46:18.110Z,37.25
2022-07-30T11:48:55.641Z,35.19
2022-07-30T11:51:22.343Z,34.37
2022-07-30T11:54:02.186Z,40.12
2022-07-30T11:56:28.809Z,44.33
2022-07-30T11:59:08.222Z,46.61
2022-07-30T12:01:35.778Z,46.82
2022-07-30T12:04:06.807Z,49.22
2022-07-30T12:06:33.750Z,44.62
2022-07-30T12:09:00.436Z,41.64
2022-07-30T12:11:34.337Z,43.29
2022-07-30T12:14:02.265Z,44.22
2022-07-30T12:16:30.914Z,41.63
2022-07-30T12:19:09.693Z,40.41
2022-07-30T12:21:36.589Z,38.73
2022-07-30T12:24:13.641Z,36.72
2022-07-30T12:26:40.541Z,34.78
2022-07-30T12:29:13.680Z,32.42
2022-07-30T12:31:40.922Z,31.72
2022-07-30T12:34:27.322Z,32.04
2022-07-30T12:36:54.772Z,33.19
2022-07-30T12:39:23.615Z,33.30
2022-07-30T12:41:52.275Z,32.21
2022-07-30T12:44:42.331Z,32.33
2022-07-30T12:47:21.987Z,30.51
2022-07-30T12:49:50.031Z,31.28
2022-07-30T12:52:31.209Z,30.92
2022-07-30T12:55:12.455Z,31.55
2022-07-30T12:58:08.615Z,31.77
2022-07-30T13:00:53.171Z,30.19
2022-07-30T13:03:27.893Z,29.74
2022-07-30T13:05:56.247Z,29.67
2022-07-30T13:08:53.976Z,29.51
2022-07-30T13:11:23.079Z,30.39
2022-07-30T13:13:50.649Z,29.75
2022-07-30T13:16:18.966Z,29.29
2022-07-30T13:18:46.109Z,29.79
2022-07-30T13:21:13.475Z,29.96
2022-07-30T13:23:41.491Z,29.91
2022-07-30T13:26:08.873Z,30.25
2022-07-30T13:28:35.859Z,30.22
2022-07-30T13:31:02.874Z,30.79
2022-07-30T13:33:29.585Z,30.37
2022-07-30T13:35:56.536Z,30.33
2022-07-30T13:38:23.484Z,30.24
2022-07-30T13:40:50.379Z,30.47
2022-07-30T13:43:17.034Z,31.09
2022-07-30T13:45:44.005Z,30.02
2022-07-30T13:48:10.953Z,30.92
2022-07-30T13:50:37.556Z,31.39
2022-07-30T13:53:05.353Z,31.32
2022-07-30T13:55:33.032Z,30.96
2022-07-30T13:57:59.911Z,30.59
2022-07-30T14:00:32.258Z,30.47
2022-07-30T14:03:03.863Z,29.99
2022-07-30T14:05:30.976Z,30.63
2022-07-30T14:07:57.504Z,30.24
2022-07-30T14:10:24.497Z,29.85
2022-07-30T14:12:54.925Z,30.20
2022-07-30T14:15:25.035Z,29.37
2022-07-30T14:17:56.484Z,29.67
2022-07-30T14:20:24.415Z,30.19
2022-07-30T14:22:56.236Z,30.00
2022-07-30T14:25:23.071Z,31.09
2022-07-30T14:27:49.758Z,31.53
2022-07-30T14:30:16.339Z,31.92
2022-07-30T14:32:43.089Z,31.40
2022-07-30T14:35:10.425Z,30.86
2022-07-30T14:37:38.204Z,30.78
2022-07-30T14:40:06.614Z,30.57
2022-07-30T14:42:33.237Z,31.02
2022-07-30T14:44:59.765Z,30.49
2022-07-30T14:47:26.310Z,29.21
2022-07-30T14:49:52.927Z,29.67
2022-07-30T14:52:19.607Z,29.36
2022-07-30T14:54:46.231Z,29.25
2022-07-30T14:57:12.847Z,30.01
2022-07-30T14:59:39.455Z,30.25
2022-07-30T15:02:06.659Z,30.34
2022-07-30T15:04:37.460Z,30.88
2022-07-30T15:07:04.158Z,29.53
2022-07-30T15:09:34.096Z,28.76
2022-07-30T15:12:23.604Z,29.48
2022-07-30T15:14:49.797Z,28.51
2022-07-30T15:17:16.347Z,29.42
2022-07-30T15:19:50.058Z,29.88
2022-07-30T15:22:17.022Z,30.18
2022-07-30T15:24:43.576Z,30.09
2022-07-30T15:27:10.140Z,29.70
2022-07-30T15:29:36.706Z,29.28
2022-07-30T15:32:03.727Z,29.39
2022-07-30T15:34:34.201Z,29.92
2022-07-30T15:37:01.784Z,29.22
2022-07-30T15:39:29.497Z,29.16
2022-07-30T15:41:57.139Z,29.60
2022-07-30T15:44:24.398Z,29.40
2022-07-30T15:46:51.027Z,29.71
2022-07-30T15:49:17.620Z,30.33
2022-07-30T15:51:50.415Z,29.79
2022-07-30T15:54:22.795Z,29.93
2022-07-30T15:56:53.912Z,29.83
2022-07-30T15:59:22.041Z,30.07
2022-07-30T16:01:49.213Z,29.11
2022-07-30T16:04:19.140Z,28.72
2022-07-30T16:06:49.574Z,28.90
2022-07-30T16:09:16.580Z,28.77
2022-07-30T16:11:43.409Z,28.54
2022-07-30T16:14:10.454Z,29.30
2022-07-30T16:16:37.000Z,29.66
2022-07-30T16:19:03.780Z,30.09
2022-07-30T16:21:30.504Z,29.62
2022-07-30T16:23:57.062Z,29.50
2022-07-30T16:26:23.623Z,29.32
2022-07-30T16:28:50.610Z,29.21
2022-07-30T16:31:17.314Z,29.15
2022-07-30T16:33:44.187Z,29.54
2022-07-30T16:36:11.275Z,28.78
2022-07-30T16:38:37.862Z,28.77
2022-07-30T16:41:04.468Z,28.12
2022-07-30T16:43:32.012Z,28.61
2022-07-30T16:45:59.451Z,28.60
2022-07-30T16:48:26.651Z,28.03
2022-07-30T16:50:53.291Z,28.26
2022-07-30T16:53:19.892Z,28.19
2022-07-30T16:55:47.022Z,28.47
2022-07-30T16:58:13.614Z,28.46
2022-07-30T17:00:40.439Z,28.48
2022-07-30T17:03:07.319Z,27.82
2022-07-30T17:05:33.900Z,27.88
2022-07-30T17:08:00.400Z,28.21
2022-07-30T17:10:27.255Z,27.72
2022-07-30T17:12:56.930Z,27.91
2022-07-30T17:15:31.994Z,27.34
2022-07-30T17:18:02.879Z,27.39
2022-07-30T17:20:31.423Z,27.82
2022-07-30T17:22:58.177Z,27.92
2022-07-30T17:25:27.770Z,28.35
2022-07-30T17:27:58.585Z,28.49
2022-07-30T17:30:26.609Z,28.13
2022-07-30T17:32:53.562Z,28.28
2022-07-30T17:35:20.448Z,28.68
2022-07-30T17:37:46.970Z,28.78
2022-07-30T17:40:29.239Z,29.17
2022-07-30T17:43:03.705Z,28.81
2022-07-30T17:45:32.007Z,29.14
2022-07-30T17:47:58.788Z,29.42
2022-07-30T17:50:25.339Z,29.39
2022-07-30T17:52:52.295Z,29.22
2022-07-30T17:55:19.033Z,28.71
2022-07-30T17:57:45.600Z,28.91
2022-07-30T18:00:12.682Z,29.01
2022-07-30T18:02:39.209Z,29.17
2022-07-30T18:05:06.003Z,28.87
2022-07-30T18:07:32.503Z,28.71
2022-07-30T18:09:59.082Z,28.81
2022-07-30T18:12:25.648Z,28.91
2022-07-30T18:14:52.477Z,28.48
2022-07-30T18:17:19.079Z,28.42
2022-07-30T18:19:45.644Z,28.70
2022-07-30T18:22:14.660Z,28.70
2022-07-30T18:24:43.017Z,28.69
2022-07-30T18:27:12.126Z,28.56
2022-07-30T18:29:38.774Z,28.69
2022-07-30T18:32:06.212Z,28.37
2022-07-30T18:34:33.330Z,28.24
2022-07-30T18:36:59.901Z,28.22
2022-07-30T18:39:26.504Z,28.33
2022-07-30T18:41:53.098Z,28.46
2022-07-30T18:44:19.729Z,28.12
2022-07-30T18:46:46.327Z,28.43
2022-07-30T18:49:34.920Z,28.04
2022-07-30T18:52:01.611Z,28.08
2022-07-30T18:54:29.571Z,28.28
2022-07-30T18:56:56.365Z,28.02
2022-07-30T18:59:22.992Z,28.21
2022-07-30T19:01:49.526Z,28.29
2022-07-30T19:04:16.163Z,28.32
2022-07-30T19:06:42.834Z,28.03
2022-07-30T19:09:17.280Z,28.16
2022-07-30T19:11:45.887Z,28.14
2022-07-30T19:14:13.983Z,27.64
2022-07-30T19:16:41.879Z,28.18
2022-07-30T19:19:08.867Z,28.09
2022-07-30T19:21:35.838Z,28.08
2022-07-30T19:24:02.548Z,27.97
2022-07-30T19:26:29.144Z,28.09
2022-07-30T19:28:55.895Z,27.83
2022-07-30T19:31:22.484Z,27.98
2022-07-30T19:33:49.513Z,27.97
2022-07-30T19:36:20.575Z,27.88
2022-07-30T19:38:48.747Z,27.65
2022-07-30T19:41:15.314Z,27.71
2022-07-30T19:43:42.164Z,27.65
2022-07-30T19:46:08.817Z,27.71
2022-07-30T19:48:37.401Z,27.75
2022-07-30T19:51:04.765Z,27.76
2022-07-30T19:53:34.469Z,27.79
2022-07-30T19:56:04.407Z,27.74
2022-07-30T19:58:36.635Z,27.53
2022-07-30T20:01:03.910Z,27.36
2022-07-30T20:03:35.547Z,27.46
2022-07-30T20:06:02.237Z,27.54
2022-07-30T20:08:29.623Z,27.58
2022-07-30T20:10:57.673Z,27.45
2022-07-30T20:13:45.035Z,27.36
2022-07-30T20:16:12.436Z,27.15
2022-07-30T20:18:39.911Z,27.19
2022-07-30T20:21:11.316Z,27.26
2022-07-30T20:23:41.258Z,27.36
2022-07-30T20:26:12.649Z,27.20
2022-07-30T20:28:41.029Z,27.24
2022-07-30T20:31:08.475Z,27.13
2022-07-30T20:33:36.191Z,26.94
2022-07-30T20:36:05.033Z,27.22
2022-07-30T20:38:33.757Z,27.25
2022-07-30T20:41:02.286Z,27.24
2022-07-30T20:43:29.192Z,27.19
2022-07-30T20:45:55.803Z,27.15
2022-07-30T20:48:25.646Z,27.31
2022-07-30T20:50:52.640Z,27.10
2022-07-30T20:53:19.868Z,27.21
2022-07-30T20:55:47.426Z,27.32
2022-07-30T20:58:16.724Z,27.24
2022-07-30T21:00:49.558Z,27.36
2022-07-30T21:03:21.737Z,27.31
2022-07-30T21:05:48.836Z,27.35
2022-07-30T21:08:18.923Z,27.21
2022-07-30T21:10:46.797Z,27.20
2022-07-30T21:13:13.784Z,26.89
2022-07-30T21:15:45.462Z,27.01
2022-07-30T21:18:27.382Z,26.86
2022-07-30T21:20:53.880Z,26.94
2022-07-30T21:23:23.901Z,26.96
2022-07-30T21:26:00.669Z,26.96
2022-07-30T21:28:29.165Z,26.90
2022-07-30T21:30:57.338Z,26.97
2022-07-30T21:33:24.337Z,26.92
2022-07-30T21:35:57.653Z,26.90
2022-07-30T21:38:26.381Z,26.93
2022-07-30T21:40:53.081Z,26.86
2022-07-30T21:43:29.477Z,26.80
2022-07-30T21:45:59.781Z,26.77
2022-07-30T21:48:30.407Z,26.45
2022-07-30T21:50:56.987Z,26.13
2022-07-30T21:53:29.652Z,26.17
2022-07-30T21:56:10.896Z,25.80
2022-07-30T21:58:39.095Z,25.74
2022-07-30T22:01:16.815Z,25.43
2022-07-30T22:04:03.634Z,25.41
2022-07-30T22:06:37.983Z,25.36
2022-07-30T22:09:19.170Z,25.35
2022-07-30T22:11:54.014Z,25.01
2022-07-30T22:14:20.572Z,24.83
2022-07-30T22:16:47.168Z,25.38
2022-07-30T22:19:14.996Z,25.53
2022-07-30T22:21:46.614Z,25.82
2022-07-30T22:24:29.893Z,25.67
2022-07-30T22:27:09.773Z,25.79
2022-07-30T22:29:41.725Z,25.87
2022-07-30T22:32:09.577Z,25.50
2022-07-30T22:34:36.152Z,24.89
2022-07-30T22:37:03.303Z,25.51
2022-07-30T22:39:32.311Z,25.51
2022-07-30T22:42:16.445Z,25.52
2022-07-30T22:44:46.249Z,25.59
2022-07-30T22:47:21.854Z,25.56
2022-07-30T22:50:01.961Z,25.20
2022-07-30T22:52:28.642Z,25.18
2022-07-30T22:54:55.582Z,25.07
2022-07-30T22:57:22.869Z,25.17
2022-07-30T22:59:57.912Z,25.08
2022-07-30T23:02:25.275Z,25.20
2022-07-30T23:04:54.538Z,25.08
2022-07-30T23:07:22.878Z,25.10
2022-07-30T23:09:51.962Z,25.18
2022-07-30T23:12:20.170Z,24.97
2022-07-30T23:14:47.372Z,25.13
2022-07-30T23:17:14.035Z,25.05
2022-07-30T23:19:40.523Z,25.44
2022-07-30T23:22:10.228Z,25.47
2022-07-30T23:24:37.102Z,25.46
2022-07-30T23:27:04.317Z,25.55
2022-07-30T23:29:31.429Z,25.29
2022-07-30T23:31:57.950Z,25.07
2022-07-30T23:34:24.529Z,24.82
2022-07-30T23:36:51.086Z,24.93
2022-07-30T23:39:19.565Z,24.83
2022-07-30T23:41:46.731Z,24.71
2022-07-30T23:44:13.303Z,24.83
2022-07-30T23:46:40.746Z,24.80
2022-07-30T23:49:07.736Z,24.82
2022-07-30T23:51:34.360Z,24.85
2022-07-30T23:54:01.457Z,24.40
2022-07-30T23:56:27.991Z,24.79
2022-07-30T23:58:54.729Z,24.62
